Terminal Aerodrome Forecast
Issued by NWS Sioux Falls, SD

Home | Current Version | Previous Version | Graphics & Text | Print | Product List | Glossary Off
Versions: 1 2 3 4 5 6 7 8 9 10 11 12 13 14 15

000
FTUS43 KFSD 161500 AAB
TAFHON
TAF AMD
KHON 161536Z 1616/1712 02017G24KT 1/2SM SN OVC005
      TEMPO 1618/1620 3SM -SN OVC015
     FM162000 36021G30KT P6SM OVC025
     FM170130 35014KT P6SM OVC025
     FM170500 33008KT P6SM SCT025 BKN150=

USA.gov is the U.S. government's official web portal to all federal, state and local government web resources and services.